This is the latest recevied weather packets stored in our database for station/object IZ5ILU-16. If no packets are shown the sender has not sent any weather packets the latest 10 day(s).
| Time | Temp. | Humidity | Pressure | Rain* | Wind** | Luminosity | Snow |
|---|---|---|---|---|---|---|---|
| 1788448302 | 32.22° C | 44% | 1017.4 hPa | 0 mm | - | - | - |
| 1788446503 | 31.67° C | 40% | 1017.6 hPa | 0 mm | - | - | - |
| 1788444703 | 31.11° C | 44% | 1017.7 hPa | 0 mm | - | - | - |
| 1788439903 | 29.44° C | 52% | 1018 hPa | 0 mm | - | - | - |
| 1788436303 | 28.33° C | 57% | 1018.5 hPa | 0 mm | - | - | - |
| 1788435103 | 27.22° C | 61% | 1018.8 hPa | 0 mm | - | - | - |
| 1788433903 | 26.67° C | 65% | 1018.8 hPa | 0 mm | - | - | - |
| 1788433303 | 26.67° C | 65% | 1019 hPa | 0 mm | - | - | - |
| 1788432703 | 26.67° C | 66% | 1019.2 hPa | 0 mm | - | - | - |
| 1788432103 | 26.11° C | 67% | 1019.4 hPa | 0 mm | - | - | - |
| 1788431503 | 26.11° C | 68% | 1019.5 hPa | 0 mm | - | - | - |
| 1788430903 | 26.11° C | 69% | 1019.7 hPa | 0 mm | - | - | - |
| 1788430303 | 26.11° C | 70% | 1019.9 hPa | 0 mm | - | - | - |
| 1788429703 | 25.56° C | 71% | 1020 hPa | 0 mm | - | - | - |
| 1788429103 | 25.56° C | 72% | 1019.9 hPa | 0 mm | - | - | - |
| 1788428503 | 25° C | 73% | 1019.9 hPa | 0 mm | - | - | - |
| 1788427903 | 25° C | 74% | 1020.1 hPa | 0 mm | - | - | - |
| 1788427303 | 25° C | 75% | 1020.1 hPa | 0 mm | - | - | - |
| 1788426703 | 25° C | 75% | 1020.1 hPa | 0 mm | - | - | - |
| 1788426103 | 24.44° C | 77% | 1020 hPa | 0 mm | - | - | - |
| 1788424303 | 23.89° C | 78% | 1020 hPa | 0 mm | - | - | - |
| 1788423703 | 23.89° C | 78% | 1019.9 hPa | 0 mm | - | - | - |
| 1788423103 | 23.89° C | 80% | 1019.9 hPa | 0 mm | - | - | - |
| 1788422503 | 23.89° C | 80% | 1019.9 hPa | 0 mm | - | - | - |
| 1788421903 | 23.33° C | 81% | 1019.8 hPa | 0 mm | - | - | - |
* Rain latest hour (hover to see other rain measurements)
** Current wind speed in m/s (hover to see current wind gust speed)